createdAt,value
2023-09-29T00:00:05.655Z,985.31
2023-09-29T00:00:49.499Z,985.31
2023-09-29T00:01:34.608Z,985.31
2023-09-29T00:02:20.448Z,985.31
2023-09-29T00:03:04.804Z,985.31
2023-09-29T00:03:50.209Z,985.31
2023-09-29T00:04:34.587Z,985.31
2023-09-29T00:05:20.514Z,985.31
2023-09-29T00:06:05.052Z,985.31
2023-09-29T00:06:50.377Z,985.31
2023-09-29T00:07:34.920Z,985.31
2023-09-29T00:08:19.783Z,985.31
2023-09-29T00:09:05.361Z,985.31
2023-09-29T00:09:49.992Z,985.31
2023-09-29T00:10:35.200Z,985.31
2023-09-29T00:11:20.176Z,985.31
2023-09-29T00:12:06.635Z,985.31
2023-09-29T00:12:50.111Z,985.31
2023-09-29T00:13:35.258Z,985.31
2023-09-29T00:14:20.317Z,985.31
2023-09-29T00:15:05.495Z,985.31
2023-09-29T00:15:51.353Z,985.31
2023-09-29T00:16:35.931Z,985.31
2023-09-29T00:17:21.028Z,985.31
2023-09-29T00:18:05.821Z,985.31
2023-09-29T00:18:51.092Z,985.31
2023-09-29T00:19:36.055Z,985.31
2023-09-29T00:20:30.208Z,985.31
2023-09-29T00:21:05.927Z,985.31
2023-09-29T00:21:50.931Z,985.31
2023-09-29T00:22:35.877Z,985.31
2023-09-29T00:23:20.715Z,985.31
2023-09-29T00:24:05.774Z,985.31
2023-09-29T00:24:51.420Z,985.31
2023-09-29T00:25:35.866Z,985.31
2023-09-29T00:26:21.232Z,985.31
2023-09-29T00:27:05.864Z,985.31
2023-09-29T00:27:51.022Z,985.31
2023-09-29T00:28:36.460Z,985.31
2023-09-29T00:29:21.572Z,985.31
2023-09-29T00:30:06.153Z,985.31
2023-09-29T00:30:51.040Z,985.31
2023-09-29T00:31:36.541Z,985.31
2023-09-29T00:32:21.331Z,985.31
2023-09-29T00:33:06.400Z,985.31
2023-09-29T00:33:51.621Z,985.31
2023-09-29T00:34:36.532Z,985.31
2023-09-29T00:35:22.266Z,985.31
2023-09-29T00:36:06.650Z,985.31
2023-09-29T00:36:51.737Z,985.31
2023-09-29T00:37:37.268Z,985.31
2023-09-29T00:38:21.560Z,985.31
2023-09-29T00:39:06.964Z,985.31
2023-09-29T00:39:51.841Z,985.31
2023-09-29T00:40:37.133Z,985.31
2023-09-29T00:42:11.884Z,985.31
2023-09-29T00:42:52.672Z,985.31
2023-09-29T00:43:37.267Z,985.31
2023-09-29T00:44:22.556Z,985.31
2023-09-29T00:45:07.074Z,985.31
2023-09-29T00:45:52.088Z,985.31
2023-09-29T00:46:37.390Z,985.31
2023-09-29T00:47:22.671Z,985.31
2023-09-29T00:48:07.444Z,985.31
2023-09-29T00:48:52.454Z,985.31
2023-09-29T00:49:37.625Z,985.31
2023-09-29T00:50:23.349Z,985.31
2023-09-29T00:51:07.785Z,985.31
2023-09-29T00:51:52.709Z,985.31
2023-09-29T00:52:37.448Z,985.31
2023-09-29T00:53:22.943Z,985.31
2023-09-29T00:54:07.778Z,985.31
2023-09-29T00:54:52.805Z,985.31
2023-09-29T00:55:38.193Z,985.31
2023-09-29T00:56:23.368Z,985.31
2023-09-29T00:57:07.839Z,985.31
2023-09-29T00:57:53.173Z,985.31
2023-09-29T00:58:38.035Z,985.31
2023-09-29T00:59:23.306Z,985.31
2023-09-29T01:00:08.665Z,985.31
2023-09-29T01:00:53.420Z,985.31
2023-09-29T01:01:38.301Z,985.31
2023-09-29T01:02:23.626Z,985.31
2023-09-29T01:03:08.892Z,985.31
2023-09-29T01:03:53.728Z,985.31
2023-09-29T01:04:38.647Z,985.31
2023-09-29T01:05:24.068Z,985.31
2023-09-29T01:06:09.020Z,985.31
2023-09-29T01:06:54.101Z,985.31
2023-09-29T01:07:38.879Z,985.31
2023-09-29T01:08:24.392Z,985.31
2023-09-29T01:09:09.115Z,985.31
2023-09-29T01:09:54.871Z,985.31
2023-09-29T01:10:39.215Z,985.31
2023-09-29T01:11:24.468Z,985.31
2023-09-29T01:12:10.254Z,985.31
2023-09-29T01:12:55.237Z,985.31
2023-09-29T01:13:38.924Z,985.31
2023-09-29T01:14:24.424Z,985.31
2023-09-29T01:15:09.256Z,985.31
2023-09-29T01:15:54.406Z,985.31
2023-09-29T01:16:39.511Z,985.31
2023-09-29T01:17:24.544Z,779.17
2023-09-29T01:18:09.715Z,227.30
2023-09-29T01:18:54.369Z,785.55
2023-09-29T01:19:39.077Z,49.45
2023-09-29T01:20:24.777Z,370.90
2023-09-29T01:21:09.588Z,298.62
2023-09-29T01:21:54.457Z,530.67
2023-09-29T01:22:39.601Z,487.88
2023-09-29T01:23:24.906Z,43.75
2023-09-29T01:24:09.641Z,877.80
2023-09-29T01:24:54.927Z,30.43
2023-09-29T01:25:40.288Z,31.38
2023-09-29T01:26:24.830Z,26.64
2023-09-29T01:27:09.987Z,29.48
2023-09-29T01:27:55.032Z,51.36
2023-09-29T01:28:39.846Z,29.48
2023-09-29T01:29:24.881Z,31.38
2023-09-29T01:30:10.484Z,224.44
2023-09-29T01:30:55.457Z,38.04
2023-09-29T01:31:40.538Z,30.43
2023-09-29T01:32:25.191Z,30.43
2023-09-29T01:33:10.089Z,31.38
2023-09-29T01:33:55.307Z,32.33
2023-09-29T01:34:40.413Z,35.19
2023-09-29T01:35:25.718Z,29.48
2023-09-29T01:36:10.238Z,32.33
2023-09-29T01:36:55.472Z,31.38
2023-09-29T01:37:40.660Z,30.43
2023-09-29T01:38:25.626Z,31.38
2023-09-29T01:39:10.285Z,31.38
2023-09-29T01:39:55.721Z,31.38
2023-09-29T01:40:40.363Z,32.33
2023-09-29T01:41:26.024Z,31.38
2023-09-29T01:42:10.279Z,80.84
2023-09-29T01:42:56.049Z,41.06
2023-09-29T01:43:41.010Z,51.36
2023-09-29T01:44:25.991Z,30.43
2023-09-29T01:45:11.178Z,29.48
2023-09-29T01:45:56.162Z,28.68
2023-09-29T01:46:41.009Z,56.40
2023-09-29T01:47:26.085Z,45.89
2023-09-29T01:48:11.228Z,223.71
2023-09-29T01:48:56.527Z,314.79
2023-09-29T01:49:40.834Z,77.80
2023-09-29T01:50:26.101Z,77.80
2023-09-29T01:51:11.548Z,31.70
2023-09-29T01:51:56.234Z,31.01
2023-09-29T01:52:41.298Z,26.77
2023-09-29T01:53:26.147Z,27.72
2023-09-29T01:54:11.421Z,27.72
2023-09-29T01:54:56.352Z,910.61
2023-09-29T01:55:41.384Z,1096.54
2023-09-29T01:56:26.389Z,293.93
2023-09-29T01:57:11.081Z,406.60
2023-09-29T01:57:57.080Z,164.25
2023-09-29T01:58:41.924Z,159.45
2023-09-29T01:59:27.111Z,933.66
2023-09-29T02:00:11.685Z,31.70
2023-09-29T02:00:56.720Z,47.07
2023-09-29T02:01:41.681Z,25.93
2023-09-29T02:02:27.185Z,25.68
2023-09-29T02:03:12.299Z,28.09
2023-09-29T02:03:56.723Z,29.48
2023-09-29T02:04:41.469Z,26.15
2023-09-29T02:05:27.260Z,25.18
2023-09-29T02:06:12.166Z,62.95
2023-09-29T02:06:57.667Z,25.18
2023-09-29T02:07:42.174Z,25.18
2023-09-29T02:08:27.088Z,24.01
2023-09-29T02:09:12.102Z,63.10
2023-09-29T02:10:50.893Z,1072.64
2023-09-29T02:11:27.239Z,482.78
2023-09-29T02:12:13.642Z,420.64
2023-09-29T02:12:57.617Z,29.64
2023-09-29T02:13:43.292Z,130.02
2023-09-29T02:14:27.837Z,1016.23
2023-09-29T02:15:12.767Z,1015.28
2023-09-29T02:15:57.669Z,1103.68
2023-09-29T02:16:42.570Z,791.50
2023-09-29T02:17:27.715Z,435.13
2023-09-29T02:18:12.821Z,1139.22
2023-09-29T02:19:04.835Z,826.94
2023-09-29T02:19:44.357Z,1022.93
2023-09-29T02:20:28.458Z,680.68
2023-09-29T02:21:13.114Z,114.72
2023-09-29T02:21:57.967Z,475.13
2023-09-29T02:22:43.637Z,479.41
2023-09-29T02:23:28.544Z,109.50
2023-09-29T02:24:13.139Z,54.75
2023-09-29T02:24:57.888Z,29.78
2023-09-29T02:25:43.059Z,30.74
2023-09-29T02:26:28.330Z,31.70
2023-09-29T02:27:13.262Z,34.58
2023-09-29T02:27:58.690Z,48.03
2023-09-29T02:28:44.107Z,29.78
2023-09-29T02:29:28.624Z,715.61
2023-09-29T02:30:15.217Z,339.08
2023-09-29T02:30:58.974Z,52.83
2023-09-29T02:31:43.892Z,30.74
2023-09-29T02:32:29.030Z,27.72
2023-09-29T02:33:14.680Z,30.80
2023-09-29T02:33:59.162Z,25.68
2023-09-29T02:34:46.595Z,133.43
2023-09-29T02:35:29.579Z,172.08
2023-09-29T02:36:14.200Z,753.33
2023-09-29T02:36:59.312Z,39.94
2023-09-29T03:02:10.012Z,24.59
2023-09-29T03:02:54.106Z,265.51
2023-09-29T03:03:39.356Z,24.21
2023-09-29T03:04:26.880Z,25.81
2023-09-29T03:05:09.637Z,25.27
2023-09-29T03:09:13.457Z,18.53
2023-09-29T03:09:58.090Z,24.38
2023-09-29T03:10:43.389Z,184.28
2023-09-29T03:11:28.653Z,184.28
2023-09-29T03:12:13.363Z,184.28
2023-09-29T03:12:58.823Z,23.47
2023-09-29T03:13:43.393Z,76.27
2023-09-29T03:14:28.901Z,76.27
2023-09-29T03:15:14.933Z,20.53
2023-09-29T03:15:59.063Z,23.47
2023-09-29T03:16:43.504Z,22.49
2023-09-29T03:17:29.018Z,22.90
2023-09-29T03:18:13.721Z,22.06
2023-09-29T03:18:58.665Z,25.35
2023-09-29T03:19:43.856Z,363.13
2023-09-29T03:20:29.786Z,29.25
2023-09-29T03:21:14.247Z,207.02
2023-09-29T03:21:58.921Z,253.71
2023-09-29T03:22:44.056Z,30.13
2023-09-29T03:23:29.472Z,27.21
2023-09-29T03:24:14.163Z,368.55
2023-09-29T03:24:59.012Z,249.78
2023-09-29T03:25:44.335Z,27.21
2023-09-29T03:26:29.473Z,26.15
2023-09-29T03:27:14.832Z,30.02
2023-09-29T03:27:59.546Z,28.09
2023-09-29T03:28:45.114Z,29.05
2023-09-29T03:29:29.911Z,28.09
2023-09-29T03:30:14.958Z,86.19
2023-09-29T03:30:59.822Z,30.02
2023-09-29T03:31:45.351Z,28.09
2023-09-29T03:32:30.062Z,27.12
2023-09-29T03:33:15.217Z,30.02
2023-09-29T03:34:00.298Z,28.09
2023-09-29T03:34:44.959Z,27.12
2023-09-29T03:35:30.994Z,25.27
2023-09-29T03:36:14.885Z,47.62
2023-09-29T03:37:00.021Z,129.78
2023-09-29T03:37:45.663Z,53.27
2023-09-29T03:38:30.380Z,26.24
2023-09-29T03:39:15.251Z,26.24
2023-09-29T03:40:00.409Z,26.24
2023-09-29T03:40:45.621Z,26.33
2023-09-29T03:41:30.486Z,24.30
2023-09-29T03:42:15.464Z,24.38
2023-09-29T03:43:00.574Z,161.67
2023-09-29T03:43:45.428Z,40.95
2023-09-29T03:44:30.575Z,27.30
2023-09-29T03:45:15.802Z,27.30
2023-09-29T03:46:00.528Z,30.23
2023-09-29T03:46:45.675Z,123.83
2023-09-29T03:47:32.106Z,19.50
2023-09-29T03:48:15.943Z,25.35
2023-09-29T03:49:01.806Z,26.33
2023-09-29T03:49:45.744Z,1048.69
2023-09-29T03:50:30.866Z,37.05
2023-09-29T03:51:16.504Z,19.44
2023-09-29T03:52:01.062Z,22.35
2023-09-29T03:52:46.320Z,22.35
2023-09-29T03:53:31.575Z,20.41
2023-09-29T03:54:16.022Z,22.35
2023-09-29T03:55:01.146Z,15.55
2023-09-29T03:55:46.891Z,21.38
2023-09-29T03:56:32.116Z,21.31
2023-09-29T03:57:17.064Z,21.38
2023-09-29T03:58:01.641Z,24.30
2023-09-29T03:58:46.988Z,24.30
2023-09-29T03:59:31.539Z,24.30
2023-09-29T04:00:16.674Z,21.31
2023-09-29T04:01:01.748Z,22.28
2023-09-29T04:01:47.136Z,20.34
2023-09-29T04:02:32.767Z,22.28
2023-09-29T04:03:18.193Z,19.37
2023-09-29T04:04:02.512Z,19.44
2023-09-29T04:04:47.253Z,22.35
2023-09-29T04:05:32.452Z,19.44
2023-09-29T04:06:17.492Z,21.31
2023-09-29T04:07:02.339Z,21.31
2023-09-29T04:07:47.748Z,20.34
2023-09-29T04:08:32.210Z,18.53
2023-09-29T04:09:17.455Z,18.53
2023-09-29T04:10:02.298Z,19.44
2023-09-29T04:10:47.490Z,17.49
2023-09-29T04:11:32.845Z,20.41
2023-09-29T04:12:17.425Z,17.49
2023-09-29T04:13:02.997Z,19.44
2023-09-29T04:13:47.896Z,19.44
2023-09-29T04:14:34.665Z,20.41
2023-09-29T04:15:18.532Z,17.49
2023-09-29T04:16:02.764Z,17.49
2023-09-29T04:16:47.897Z,16.52
2023-09-29T04:17:33.091Z,15.55
2023-09-29T04:18:17.851Z,15.55
2023-09-29T04:19:03.080Z,16.52
2023-09-29T04:19:48.073Z,18.47
2023-09-29T04:20:33.111Z,15.65
2023-09-29T04:21:20.307Z,17.60
2023-09-29T04:22:03.203Z,18.58
2023-09-29T04:22:48.429Z,16.58
2023-09-29T04:23:33.242Z,16.58
2023-09-29T04:24:18.949Z,16.58
2023-09-29T04:25:03.641Z,16.58
2023-09-29T04:25:48.406Z,15.60
2023-09-29T04:26:34.283Z,15.60
2023-09-29T04:27:18.774Z,14.63
2023-09-29T04:28:03.863Z,14.63
2023-09-29T04:28:48.626Z,11.76
2023-09-29T04:29:33.597Z,12.82
2023-09-29T04:30:19.113Z,12.80
2023-09-29T04:31:03.602Z,13.79
2023-09-29T04:31:48.849Z,13.79
2023-09-29T04:32:34.177Z,12.80
2023-09-29T04:33:19.059Z,10.83
2023-09-29T04:34:04.736Z,12.80
2023-09-29T04:34:49.376Z,11.82
2023-09-29T04:35:33.934Z,11.82
2023-09-29T04:36:19.134Z,10.85
2023-09-29T04:37:04.052Z,10.87
2023-09-29T04:37:49.118Z,10.89
2023-09-29T04:38:34.229Z,10.90
2023-09-29T04:39:19.542Z,9.90
2023-09-29T04:40:04.056Z,9.90
2023-09-29T04:40:49.109Z,10.89
2023-09-29T04:41:35.585Z,8.91
2023-09-29T04:42:19.116Z,7.92
2023-09-29T04:43:04.284Z,8.91
2023-09-29T04:43:49.818Z,9.90
2023-09-29T04:44:34.333Z,7.91
2023-09-29T04:45:19.591Z,8.89
2023-09-29T04:46:04.814Z,7.89
2023-09-29T04:46:50.489Z,7.89
2023-09-29T04:47:35.638Z,9.88
2023-09-29T04:48:20.333Z,8.88
2023-09-29T04:49:05.483Z,7.88
2023-09-29T04:49:51.272Z,6.91
2023-09-29T04:50:35.299Z,7.93
2023-09-29T04:51:20.873Z,5.95
2023-09-29T04:52:05.290Z,7.94
2023-09-29T04:52:50.048Z,6.96
2023-09-29T04:53:34.832Z,6.94
2023-09-29T04:54:20.734Z,5.97
2023-09-29T04:55:04.981Z,6.97
2023-09-29T04:55:50.870Z,6.97
2023-09-29T04:56:35.646Z,5.99
2023-09-29T04:57:20.559Z,6.99
2023-09-29T04:58:05.303Z,6.99
2023-09-29T04:58:50.564Z,5.99
2023-09-29T04:59:35.788Z,5.98
2023-09-29T05:00:22.073Z,6.97
2023-09-29T05:01:05.809Z,4.98
2023-09-29T05:01:50.789Z,5.98
2023-09-29T05:02:35.883Z,5.98
2023-09-29T05:03:21.408Z,5.97
2023-09-29T05:04:06.039Z,6.96
2023-09-29T05:04:51.033Z,4.97
2023-09-29T05:05:36.093Z,6.95
2023-09-29T05:06:21.352Z,5.96
2023-09-29T05:07:06.088Z,5.96
2023-09-29T05:07:51.440Z,5.96
2023-09-29T05:08:36.343Z,6.96
2023-09-29T05:09:21.665Z,5.96
2023-09-29T05:10:06.105Z,5.96
2023-09-29T05:10:51.785Z,6.94
2023-09-29T05:11:36.547Z,4.95
2023-09-29T05:12:21.478Z,5.95
2023-09-29T05:13:06.540Z,5.95
2023-09-29T05:13:51.597Z,4.95
2023-09-29T05:14:37.490Z,4.97
2023-09-29T05:15:22.229Z,4.97
2023-09-29T05:16:06.884Z,5.96
2023-09-29T05:16:52.373Z,5.96
2023-09-29T05:17:50.184Z,4.98
2023-09-29T05:18:22.219Z,5.97
2023-09-29T05:19:07.101Z,4.97
2023-09-29T05:19:52.526Z,4.97
2023-09-29T05:20:37.294Z,4.97
2023-09-29T05:21:22.193Z,4.97
2023-09-29T05:22:07.236Z,4.97
2023-09-29T05:22:52.630Z,4.97
2023-09-29T05:23:37.681Z,4.97
2023-09-29T05:24:22.288Z,4.98
2023-09-29T05:25:07.328Z,4.97
2023-09-29T05:25:52.208Z,3.98
2023-09-29T05:26:37.811Z,2.99
2023-09-29T05:27:22.612Z,3.98
2023-09-29T05:28:07.769Z,3.99
2023-09-29T05:28:53.637Z,14.92
2023-09-29T05:29:38.449Z,4.98
2023-09-29T05:30:23.533Z,3.98
2023-09-29T05:31:07.631Z,3.98
2023-09-29T05:31:54.098Z,5.97
2023-09-29T05:32:37.863Z,50.74
2023-09-29T05:33:23.175Z,4.97
2023-09-29T05:34:07.862Z,3.98
2023-09-29T05:34:53.585Z,3.98
2023-09-29T05:35:38.369Z,4.97
2023-09-29T05:36:23.503Z,4.98
2023-09-29T05:37:08.477Z,3.98
2023-09-29T05:37:53.718Z,4.98
2023-09-29T05:38:38.237Z,3.98
2023-09-29T05:39:23.060Z,3.98
2023-09-29T05:40:08.724Z,4.99
2023-09-29T05:40:53.419Z,4.99
2023-09-29T05:41:38.386Z,4.99
2023-09-29T05:42:30.412Z,3.99
2023-09-29T05:43:08.067Z,3.99
2023-09-29T05:43:53.448Z,3.99
2023-09-29T05:44:38.751Z,3.99
2023-09-29T05:45:24.715Z,3.99
2023-09-29T05:46:08.795Z,3.99
2023-09-29T05:46:54.033Z,3.99
2023-09-29T05:47:39.059Z,3.99
2023-09-29T05:48:23.460Z,3.98
2023-09-29T05:49:08.433Z,3.99
2023-09-29T05:49:59.780Z,4.99
2023-09-29T05:50:39.114Z,163.50
2023-09-29T05:51:23.983Z,737.48
2023-09-29T05:52:08.969Z,737.48
2023-09-29T05:53:09.198Z,3.99
2023-09-29T05:53:39.541Z,4.99
2023-09-29T05:54:23.943Z,4.99
2023-09-29T05:55:09.399Z,4.98
2023-09-29T05:55:54.601Z,3.99
2023-09-29T05:56:39.974Z,457.13
2023-09-29T05:57:24.385Z,457.13
2023-09-29T05:58:08.699Z,3.99
2023-09-29T05:58:54.199Z,5.98
2023-09-29T05:59:39.256Z,3.99
2023-09-29T06:00:24.315Z,3.99
2023-09-29T06:01:08.899Z,3.99
2023-09-29T06:02:05.078Z,3.99
2023-09-29T06:02:39.456Z,6.98
2023-09-29T06:03:24.196Z,3.99
2023-09-29T06:04:09.682Z,3.99
2023-09-29T06:04:55.657Z,3.99
2023-09-29T06:05:39.799Z,3.99
2023-09-29T06:06:25.384Z,3.99
2023-09-29T06:07:10.362Z,3.99
2023-09-29T06:07:56.787Z,117.34
2023-09-29T06:08:52.623Z,3.99
2023-09-29T06:09:25.164Z,3.99
2023-09-29T06:10:10.153Z,3.99
2023-09-29T06:10:55.268Z,3.99
2023-09-29T06:11:40.322Z,4.99
2023-09-29T06:12:25.356Z,3.99
2023-09-29T06:13:11.713Z,4.99
2023-09-29T06:13:55.701Z,4.99
2023-09-29T06:14:40.913Z,3.99
2023-09-29T06:15:25.821Z,4.00
2023-09-29T06:16:10.826Z,4.00
2023-09-29T06:16:55.665Z,4.00
2023-09-29T06:18:25.391Z,2.99
2023-09-29T06:19:10.585Z,2.99
2023-09-29T06:19:56.291Z,3.99
2023-09-29T06:20:40.922Z,2.99
2023-09-29T06:21:25.953Z,3.99
2023-09-29T06:22:11.021Z,4.99
2023-09-29T06:22:56.063Z,3.99
2023-09-29T06:23:41.475Z,3.99
2023-09-29T06:24:26.422Z,3.99
2023-09-29T06:25:11.582Z,3.99
2023-09-29T06:25:56.433Z,3.99
2023-09-29T06:26:41.530Z,3.00
2023-09-29T06:27:26.642Z,5.00
2023-09-29T06:28:11.465Z,3.00
2023-09-29T06:28:56.529Z,3.00
2023-09-29T06:29:41.787Z,364.54
2023-09-29T06:30:26.717Z,3.99
2023-09-29T06:31:11.639Z,3.00
2023-09-29T06:31:56.654Z,3.00
2023-09-29T06:32:42.163Z,3.00
2023-09-29T06:33:26.691Z,3.99
2023-09-29T06:34:12.648Z,3.99
2023-09-29T06:34:57.423Z,3.99
2023-09-29T06:35:42.071Z,3.99
2023-09-29T06:36:26.998Z,2.99
2023-09-29T06:37:12.299Z,4.99
2023-09-29T06:37:57.315Z,3.99
2023-09-29T06:38:42.388Z,2.99
2023-09-29T06:39:27.335Z,3.99
2023-09-29T06:40:12.948Z,4.99
2023-09-29T06:40:57.940Z,3.99
2023-09-29T06:41:42.946Z,63.89
2023-09-29T06:42:27.747Z,59.92
2023-09-29T06:43:12.799Z,59.92
2023-09-29T06:43:58.037Z,2.99
2023-09-29T06:44:43.392Z,2.99
2023-09-29T06:45:29.334Z,2.99
2023-09-29T06:46:12.964Z,2.99
2023-09-29T06:46:57.892Z,2.99
2023-09-29T06:47:43.000Z,2.99
2023-09-29T06:48:27.977Z,2.99
2023-09-29T06:49:13.162Z,2.99
2023-09-29T06:49:57.791Z,2.99
2023-09-29T06:50:43.269Z,2.99
2023-09-29T06:51:28.395Z,2.99
2023-09-29T06:52:13.441Z,3.00
2023-09-29T06:52:58.123Z,2.99
2023-09-29T06:53:43.365Z,2.99
2023-09-29T06:54:28.893Z,2.99
2023-09-29T06:55:14.028Z,2.99
2023-09-29T06:55:58.600Z,2.99
2023-09-29T06:56:43.461Z,2.99
2023-09-29T06:57:29.452Z,2.00
2023-09-29T06:58:13.736Z,2.99
2023-09-29T06:59:00.166Z,2.99
2023-09-29T06:59:43.805Z,2.99
2023-09-29T07:00:28.606Z,2.99
2023-09-29T07:01:13.802Z,3.00
2023-09-29T07:01:59.309Z,2.99
2023-09-29T07:02:44.338Z,2.99
2023-09-29T07:03:29.703Z,2.99
2023-09-29T07:04:14.441Z,2.99
2023-09-29T07:04:59.927Z,3.99
2023-09-29T07:05:44.335Z,3.99
2023-09-29T07:06:29.238Z,2.99
2023-09-29T07:07:16.287Z,2.99
2023-09-29T07:08:03.152Z,2.99
2023-09-29T07:08:44.363Z,2.99
2023-09-29T07:09:29.486Z,3.99
2023-09-29T07:10:14.580Z,3.99
2023-09-29T07:10:59.482Z,3.99
2023-09-29T07:11:44.582Z,2.99
2023-09-29T07:12:29.449Z,2.99
2023-09-29T07:13:14.654Z,3.99
2023-09-29T07:13:59.895Z,3.99
2023-09-29T07:14:44.408Z,3.99
2023-09-29T07:15:29.724Z,3.99
2023-09-29T07:16:14.916Z,3.99
2023-09-29T07:16:59.758Z,5.99
2023-09-29T07:17:45.259Z,6.99
2023-09-29T07:18:29.609Z,7.99
2023-09-29T07:19:15.586Z,3.98
2023-09-29T07:19:59.989Z,3.98
2023-09-29T07:20:45.005Z,551.54
2023-09-29T07:21:30.574Z,474.02
2023-09-29T07:22:14.897Z,3.99
2023-09-29T07:23:00.430Z,5.99
2023-09-29T07:23:45.043Z,3.99
2023-09-29T07:24:30.998Z,3.99
2023-09-29T07:25:16.440Z,3.99
2023-09-29T07:26:00.111Z,21.94
2023-09-29T07:26:45.173Z,3.99
2023-09-29T07:27:30.623Z,3.99
2023-09-29T07:28:15.820Z,3.99
2023-09-29T07:29:00.123Z,2.99
2023-09-29T07:29:45.507Z,2.99
2023-09-29T07:30:30.668Z,2.99
2023-09-29T07:31:15.815Z,3.99
2023-09-29T07:32:00.450Z,34.91
2023-09-29T07:32:46.160Z,4.99
2023-09-29T07:33:30.813Z,2.99
2023-09-29T07:34:15.822Z,2.99
2023-09-29T07:35:01.179Z,2.99
2023-09-29T07:35:47.458Z,3.99
2023-09-29T07:36:33.956Z,3.79
2023-09-29T07:37:16.048Z,93.83
2023-09-29T07:38:00.697Z,3.99
2023-09-29T07:38:46.235Z,2.99
2023-09-29T07:39:31.015Z,2.99
2023-09-29T07:40:16.017Z,3.99
2023-09-29T07:41:01.363Z,3.99
2023-09-29T07:41:47.344Z,2.99
2023-09-29T07:42:31.344Z,3.99
2023-09-29T07:43:16.406Z,2.99
2023-09-29T07:44:02.097Z,2.99
2023-09-29T07:44:46.656Z,3.00
2023-09-29T07:45:31.784Z,2.99
2023-09-29T07:46:16.567Z,3.99
2023-09-29T07:47:02.948Z,3.99
2023-09-29T07:47:47.096Z,3.00
2023-09-29T07:48:33.020Z,7.99
2023-09-29T07:49:16.950Z,2.99
2023-09-29T07:50:03.147Z,2.99
2023-09-29T07:50:46.827Z,4.99
2023-09-29T07:51:32.360Z,3.99
2023-09-29T07:52:17.188Z,3.99
2023-09-29T07:53:02.329Z,3.99
2023-09-29T07:53:47.593Z,3.99
2023-09-29T07:54:32.375Z,3.99
2023-09-29T07:55:17.405Z,2.99
2023-09-29T07:56:06.330Z,2.99
2023-09-29T07:56:53.246Z,2.99
2023-09-29T07:57:32.814Z,17.97
2023-09-29T07:58:17.739Z,6.99
2023-09-29T07:59:08.111Z,6.99
2023-09-29T07:59:53.218Z,6.99
2023-09-29T08:00:34.703Z,6.99
2023-09-29T08:01:17.660Z,3.99
2023-09-29T08:02:02.885Z,2.99
2023-09-29T08:02:47.847Z,3.99
2023-09-29T08:03:32.737Z,92.81
2023-09-29T08:04:18.066Z,3.99
2023-09-29T08:05:04.470Z,3.99
2023-09-29T08:05:48.768Z,276.33
2023-09-29T08:06:33.680Z,2.99
2023-09-29T08:07:24.299Z,2.99
2023-09-29T08:08:03.273Z,2.98
2023-09-29T08:08:59.232Z,2.98
2023-09-29T08:09:39.574Z,2.98
2023-09-29T08:10:23.965Z,2.98
2023-09-29T08:11:09.350Z,2.99
2023-09-29T08:11:54.716Z,2.99
2023-09-29T08:12:39.141Z,2.99
2023-09-29T08:13:24.354Z,2.99
2023-09-29T08:14:09.597Z,2.99
2023-09-29T08:14:54.441Z,2.99
2023-09-29T08:15:39.357Z,2.99
2023-09-29T08:16:24.626Z,2.99
2023-09-29T08:17:11.059Z,2.99
2023-09-29T08:17:58.096Z,2.99
2023-09-29T08:18:39.933Z,2.99
2023-09-29T08:19:20.675Z,2.99
2023-09-29T08:20:04.530Z,2.99
2023-09-29T08:20:49.307Z,3.98
2023-09-29T08:21:35.104Z,4.98
2023-09-29T08:22:30.090Z,4.98
2023-09-29T08:23:06.340Z,3.98
2023-09-29T08:23:52.750Z,2.79
2023-09-29T08:24:39.423Z,2.79
2023-09-29T08:25:24.916Z,2.79
2023-09-29T08:26:09.551Z,2.79
2023-09-29T08:26:54.801Z,2.79
2023-09-29T08:27:40.017Z,2.79
2023-09-29T08:28:24.811Z,2.79
2023-09-29T08:29:10.333Z,2.79
2023-09-29T08:29:55.961Z,2.79
2023-09-29T08:30:40.017Z,2.79
2023-09-29T08:31:25.215Z,2.79
2023-09-29T08:32:10.091Z,2.79
2023-09-29T08:33:06.569Z,2.79
2023-09-29T08:33:50.485Z,2.79
2023-09-29T08:34:25.753Z,2.78
2023-09-29T08:35:10.395Z,2.78
2023-09-29T08:35:55.513Z,2.77
2023-09-29T08:36:40.865Z,2.78
2023-09-29T08:37:25.652Z,2.78
2023-09-29T08:38:10.541Z,2.78
2023-09-29T08:38:55.981Z,2.78
2023-09-29T08:39:39.527Z,2.78
2023-09-29T08:40:24.105Z,455.26
2023-09-29T08:41:06.668Z,32.70
2023-09-29T08:41:50.431Z,19.88
2023-09-29T08:42:35.089Z,3.98
2023-09-29T08:43:20.076Z,482.10
2023-09-29T08:44:07.980Z,137.17
2023-09-29T08:44:52.145Z,137.17
2023-09-29T08:45:35.392Z,18.89
2023-09-29T08:46:20.830Z,25.84
2023-09-29T08:47:05.506Z,220.67
2023-09-29T08:47:51.081Z,220.67
2023-09-29T08:48:36.387Z,220.67
2023-09-29T08:49:20.850Z,9.94
2023-09-29T08:50:05.916Z,9.94
2023-09-29T08:50:51.661Z,9.94
2023-09-29T08:51:36.338Z,9.94
2023-09-29T08:52:21.548Z,1.99
2023-09-29T08:53:06.175Z,3.97
2023-09-29T08:53:51.016Z,2.98
2023-09-29T08:54:35.891Z,3.97
2023-09-29T08:55:21.248Z,2.98
2023-09-29T08:56:06.776Z,2.98
2023-09-29T08:56:52.148Z,2.98
2023-09-29T08:57:37.646Z,2.98
2023-09-29T08:58:21.334Z,2.98
2023-09-29T08:59:06.302Z,2.98
2023-09-29T08:59:51.617Z,2.98
2023-09-29T09:00:37.147Z,1.99
2023-09-29T09:01:22.780Z,3.97
2023-09-29T09:02:06.307Z,2.98
2023-09-29T09:02:52.062Z,2.98
2023-09-29T09:03:36.654Z,16.88
2023-09-29T09:04:25.019Z,2.98
2023-09-29T09:05:07.020Z,2.98
2023-09-29T09:05:51.409Z,2.98
2023-09-29T09:06:36.808Z,3.97
2023-09-29T09:07:21.771Z,2.98
2023-09-29T09:08:06.886Z,3.96
2023-09-29T09:08:51.430Z,2.97
2023-09-29T09:09:36.566Z,13.69
2023-09-29T09:10:32.929Z,13.69
2023-09-29T09:11:07.103Z,13.69
2023-09-29T09:11:52.184Z,13.69
2023-09-29T09:12:37.204Z,13.69
2023-09-29T09:13:22.644Z,13.69
2023-09-29T09:14:07.722Z,13.69
2023-09-29T09:14:52.846Z,13.69
2023-09-29T09:15:37.219Z,13.69
2023-09-29T09:16:22.285Z,13.69
2023-09-29T09:17:08.366Z,13.69
2023-09-29T09:17:53.018Z,13.69
2023-09-29T09:18:37.930Z,13.69
2023-09-29T09:19:22.664Z,13.69
2023-09-29T09:20:07.354Z,412.82
2023-09-29T09:20:52.636Z,466.24
2023-09-29T09:21:37.459Z,691.00
2023-09-29T09:22:31.459Z,244.38
2023-09-29T09:23:07.594Z,3.98
2023-09-29T09:23:53.142Z,3.98
2023-09-29T09:24:37.664Z,2.98
2023-09-29T09:25:22.926Z,1.99
2023-09-29T09:26:08.089Z,2.98
2023-09-29T09:26:53.980Z,1.99
2023-09-29T09:27:38.428Z,1.99
2023-09-29T09:28:23.457Z,1.99
2023-09-29T09:29:13.977Z,981.88
2023-09-29T09:30:06.742Z,981.88
2023-09-29T09:30:48.377Z,981.88
2023-09-29T09:31:28.220Z,981.88
2023-09-29T09:32:13.788Z,981.88
2023-09-29T09:32:59.663Z,981.88
2023-09-29T09:33:43.781Z,981.88
2023-09-29T09:34:29.069Z,981.88
2023-09-29T09:35:14.345Z,981.88
2023-09-29T09:35:59.136Z,981.88
2023-09-29T09:36:43.853Z,981.88
2023-09-29T09:37:29.127Z,981.88
2023-09-29T09:38:14.179Z,981.88
2023-09-29T09:38:59.919Z,981.88
2023-09-29T09:39:44.190Z,981.88
2023-09-29T09:40:29.517Z,981.88
2023-09-29T09:41:14.262Z,981.88
2023-09-29T09:41:59.672Z,981.09
2023-09-29T09:42:44.413Z,981.09
2023-09-29T09:43:29.753Z,981.09
2023-09-29T09:44:14.807Z,981.09
2023-09-29T09:44:59.703Z,981.09
2023-09-29T09:45:47.138Z,981.09
2023-09-29T09:46:29.999Z,981.09
2023-09-29T09:47:17.999Z,981.09
2023-09-29T09:48:09.937Z,981.09
2023-09-29T09:48:45.384Z,981.09
2023-09-29T09:49:30.046Z,981.09
2023-09-29T09:50:15.082Z,981.09
2023-09-29T09:51:00.173Z,981.09
2023-09-29T09:51:45.187Z,981.09
2023-09-29T09:52:30.219Z,981.09
2023-09-29T09:53:16.010Z,981.09
2023-09-29T09:54:01.045Z,981.09
2023-09-29T09:54:45.669Z,981.09
2023-09-29T09:55:30.333Z,981.09
2023-09-29T09:56:14.802Z,981.09
2023-09-29T09:57:00.401Z,981.09
2023-09-29T09:57:45.501Z,981.09
2023-09-29T09:58:30.410Z,981.88
2023-09-29T09:59:15.442Z,981.09
2023-09-29T10:00:00.848Z,981.09
2023-09-29T10:00:45.738Z,981.09
2023-09-29T10:01:30.760Z,981.09
2023-09-29T10:02:16.061Z,981.09
2023-09-29T10:03:01.003Z,981.09
2023-09-29T10:03:46.471Z,975.30
2023-09-29T10:04:32.496Z,965.11
2023-09-29T10:05:15.978Z,981.88
2023-09-29T10:06:03.432Z,981.88
2023-09-29T10:06:45.908Z,981.88
2023-09-29T10:10:29.215Z,520.23
2023-09-29T10:11:14.228Z,8.95
2023-09-29T10:11:59.666Z,10.93
2023-09-29T10:12:49.504Z,10.93
2023-09-29T10:13:34.866Z,10.93
2023-09-29T10:15:47.614Z,0.00
2023-09-29T10:16:33.000Z,0.00